Time;durP1;ratioP1;P1;durP2;ratioP2;P2;SDS_P1;SDS_P2;PMS_P1;PMS_P2;Temp;Humidity;BMP_temperature;BMP_pressure;BME280_temperature;BME280_humidity;BME280_pressure;Samples;Min_cycle;Max_cycle;Signal;HPM_P1;HPM_P2
2023/10/22 00:01:18;;;;;;;3.42;1.20;;;12.50;99.90;;;;;;5025530;28;20489;-67
2023/10/22 00:03:43;;;;;;;5.40;0.95;;;12.50;99.90;;;;;;5028745;28;20454;-67
2023/10/22 00:06:09;;;;;;;4.15;0.90;;;12.60;99.90;;;;;;5029505;28;20026;-67
2023/10/22 00:08:34;;;;;;;3.58;0.75;;;12.60;99.90;;;;;;5026293;28;20067;-67
2023/10/22 00:11:00;;;;;;;3.25;0.90;;;12.70;99.90;;;;;;5026712;28;20037;-67
2023/10/22 00:13:26;;;;;;;4.70;1.45;;;12.70;99.90;;;;;;5026462;28;20059;-67
2023/10/22 00:15:51;;;;;;;3.00;1.05;;;12.70;99.90;;;;;;5028686;28;20060;-67
2023/10/22 00:18:17;;;;;;;2.85;0.75;;;12.70;99.90;;;;;;5032359;28;20022;-67
2023/10/22 00:20:42;;;;;;;2.10;0.77;;;12.70;99.90;;;;;;5027951;28;20073;-67
2023/10/22 00:23:08;;;;;;;2.65;0.80;;;12.80;99.90;;;;;;5019418;28;20059;-67
2023/10/22 00:25:37;;;;;;;3.75;1.10;;;12.70;99.90;;;;;;5022489;28;20049;-67
2023/10/22 00:28:03;;;;;;;6.32;1.05;;;12.70;99.90;;;;;;5024245;28;20109;-67
2023/10/22 00:30:30;;;;;;;4.68;0.80;;;12.70;99.90;;;;;;5020287;28;20394;-67
2023/10/22 00:32:56;;;;;;;3.78;0.90;;;12.70;99.90;;;;;;5022796;28;20029;-67
2023/10/22 00:35:21;;;;;;;5.50;0.80;;;12.70;99.90;;;;;;5024231;28;20048;-67
2023/10/22 00:37:47;;;;;;;5.38;1.10;;;12.70;99.90;;;;;;5028628;28;20402;-67
2023/10/22 00:40:14;;;;;;;6.07;0.90;;;12.70;99.90;;;;;;5027351;28;20558;-67
2023/10/22 00:42:39;;;;;;;3.95;0.70;;;12.80;99.90;;;;;;5028813;28;20147;-67
2023/10/22 00:45:07;;;;;;;10.75;1.20;;;12.70;99.90;;;;;;5026103;28;20105;-67
2023/10/22 00:47:34;;;;;;;4.03;0.80;;;12.70;99.90;;;;;;5031937;28;20039;-67
2023/10/22 00:50:01;;;;;;;3.47;0.93;;;12.70;99.90;;;;;;5032436;28;20400;-67
2023/10/22 00:52:27;;;;;;;2.92;1.13;;;12.60;99.90;;;;;;5027405;28;20076;-67
2023/10/22 00:54:55;;;;;;;3.55;0.80;;;12.70;99.90;;;;;;4996228;28;20109;-68
2023/10/22 00:57:22;;;;;;;5.40;1.20;;;12.60;99.90;;;;;;5021488;28;20025;-67
2023/10/22 00:59:51;;;;;;;1.17;0.88;;;12.60;99.90;;;;;;5030060;28;20049;-67
2023/10/22 01:02:17;;;;;;;3.40;1.70;;;12.50;99.90;;;;;;5018066;28;20570;-67
2023/10/22 01:04:43;;;;;;;3.17;1.08;;;12.50;99.90;;;;;;5031960;28;20026;-67
2023/10/22 01:07:09;;;;;;;7.28;1.08;;;12.50;99.90;;;;;;5033822;28;20041;-67
2023/10/22 01:09:34;;;;;;;5.10;1.02;;;12.50;99.90;;;;;;5034356;28;20022;-67
2023/10/22 01:12:02;;;;;;;2.88;1.55;;;12.50;99.90;;;;;;5027249;28;20087;-67
2023/10/22 01:14:28;;;;;;;2.28;0.82;;;12.50;99.90;;;;;;5033103;28;20032;-67
2023/10/22 01:16:53;;;;;;;3.55;0.93;;;12.50;99.90;;;;;;5027033;28;20034;-67
2023/10/22 01:19:19;;;;;;;4.40;1.08;;;12.50;99.90;;;;;;5035045;28;20083;-67
2023/10/22 01:21:44;;;;;;;5.80;1.10;;;12.40;99.90;;;;;;5029813;28;20021;-67
2023/10/22 01:24:10;;;;;;;2.78;0.65;;;12.30;99.90;;;;;;5031379;28;20429;-67
2023/10/22 01:26:45;;;;;;;2.20;0.65;;;12.30;99.90;;;;;;5027274;28;20021;-67
2023/10/22 01:29:11;;;;;;;3.10;0.73;;;12.20;99.90;;;;;;5027087;28;20083;-67
2023/10/22 01:31:37;;;;;;;4.55;1.13;;;12.20;99.90;;;;;;5031777;28;20025;-67
2023/10/22 01:34:03;;;;;;;0.80;0.40;;;12.20;99.90;;;;;;5029703;28;20033;-67
2023/10/22 01:36:29;;;;;;;3.30;1.50;;;12.10;99.90;;;;;;5030531;28;20021;-68
2023/10/22 01:38:55;;;;;;;5.78;1.15;;;12.20;99.90;;;;;;5029770;28;20032;-67
2023/10/22 01:41:21;;;;;;;1.95;0.90;;;12.20;99.90;;;;;;5029212;28;20026;-67
2023/10/22 01:43:46;;;;;;;5.03;0.80;;;12.20;99.90;;;;;;5029297;28;20030;-67
2023/10/22 01:46:12;;;;;;;4.25;0.70;;;12.20;99.90;;;;;;5032369;28;20048;-67
2023/10/22 01:48:38;;;;;;;2.00;1.00;;;12.20;99.90;;;;;;5031993;28;20032;-67
2023/10/22 01:51:04;;;;;;;3.45;0.75;;;12.20;99.90;;;;;;5030891;28;20041;-68
2023/10/22 01:53:30;;;;;;;3.40;0.77;;;12.20;99.90;;;;;;5028975;28;20030;-67
2023/10/22 01:55:56;;;;;;;6.22;1.02;;;12.20;99.90;;;;;;5029184;28;20087;-68
2023/10/22 01:58:22;;;;;;;3.28;0.85;;;12.30;99.90;;;;;;5028630;28;20479;-68
2023/10/22 02:00:48;;;;;;;6.43;0.95;;;12.40;99.90;;;;;;5030844;28;20038;-67
2023/10/22 02:03:18;;;;;;;6.03;0.93;;;12.40;99.90;;;;;;5028528;28;20017;-67
2023/10/22 02:05:43;;;;;;;5.65;1.05;;;12.40;99.90;;;;;;5028989;28;20013;-67
2023/10/22 02:08:09;;;;;;;4.00;0.90;;;12.30;99.90;;;;;;5029481;28;20475;-67
2023/10/22 02:10:34;;;;;;;1.67;0.68;;;12.40;99.90;;;;;;5029994;28;20112;-67
2023/10/22 02:13:00;;;;;;;1.73;0.50;;;12.40;99.90;;;;;;5029159;28;20522;-67
2023/10/22 02:15:26;;;;;;;8.85;1.33;;;12.40;99.90;;;;;;5028496;28;20115;-67
2023/10/22 02:17:53;;;;;;;1.70;0.68;;;12.50;99.90;;;;;;5027409;28;20392;-67
2023/10/22 02:20:19;;;;;;;2.67;0.63;;;12.50;99.90;;;;;;5030263;28;20071;-67
2023/10/22 02:22:44;;;;;;;1.30;0.70;;;12.50;99.90;;;;;;5028985;28;20113;-68
2023/10/22 02:25:11;;;;;;;1.85;0.70;;;12.40;99.90;;;;;;5030763;28;20025;-67
2023/10/22 02:27:36;;;;;;;3.15;0.70;;;12.40;99.90;;;;;;5026701;28;20026;-67
2023/10/22 02:30:02;;;;;;;3.20;0.90;;;12.50;99.90;;;;;;5029797;28;20083;-67
2023/10/22 02:32:28;;;;;;;2.97;0.70;;;12.50;99.90;;;;;;5030561;28;20037;-67
2023/10/22 02:34:53;;;;;;;2.90;0.75;;;12.50;99.90;;;;;;5024902;28;20036;-67
2023/10/22 02:37:20;;;;;;;4.57;1.05;;;12.50;99.90;;;;;;5030826;28;20049;-67
2023/10/22 02:39:46;;;;;;;7.32;1.05;;;12.50;99.90;;;;;;5029111;28;20039;-67
2023/10/22 02:42:12;;;;;;;6.15;0.75;;;12.50;99.90;;;;;;5029596;28;20021;-67
2023/10/22 02:44:38;;;;;;;7.35;1.38;;;12.50;99.90;;;;;;5028397;28;20128;-67
2023/10/22 02:47:03;;;;;;;1.33;0.77;;;12.50;99.90;;;;;;5030236;28;20029;-67
2023/10/22 02:49:30;;;;;;;8.80;0.90;;;12.40;99.90;;;;;;5027078;28;20021;-68
2023/10/22 02:51:55;;;;;;;3.58;0.88;;;12.50;99.90;;;;;;5029452;28;20033;-67
2023/10/22 02:54:21;;;;;;;4.93;0.75;;;12.50;99.90;;;;;;5028807;28;20036;-68
2023/10/22 02:56:47;;;;;;;5.35;0.80;;;12.40;99.90;;;;;;5026531;28;20482;-67
2023/10/22 02:59:13;;;;;;;4.90;0.95;;;12.50;99.90;;;;;;5026226;28;20159;-68
2023/10/22 03:01:38;;;;;;;5.28;1.33;;;12.50;99.90;;;;;;5027945;28;20022;-67
2023/10/22 03:04:04;;;;;;;3.03;0.60;;;12.40;99.90;;;;;;5024866;28;20031;-67
2023/10/22 03:06:30;;;;;;;3.85;1.42;;;12.40;99.90;;;;;;5028583;28;20040;-67
2023/10/22 03:08:55;;;;;;;2.70;0.70;;;12.40;99.90;;;;;;5028318;28;20463;-67
2023/10/22 03:11:21;;;;;;;3.22;0.63;;;12.40;99.90;;;;;;5026021;28;20022;-67
2023/10/22 03:13:48;;;;;;;10.30;1.00;;;12.40;99.90;;;;;;5028322;28;20493;-67
2023/10/22 03:16:17;;;;;;;3.78;1.02;;;12.40;99.90;;;;;;5026566;28;20384;-68
2023/10/22 03:18:46;;;;;;;9.82;1.00;;;12.40;99.90;;;;;;5024040;28;20108;-67
2023/10/22 03:21:19;;;;;;;3.03;0.90;;;12.40;99.90;;;;;;5029672;28;21045;-67
2023/10/22 03:23:46;;;;;;;4.57;0.60;;;12.40;99.90;;;;;;5026381;28;20044;-67
2023/10/22 03:26:19;;;;;;;4.43;0.77;;;12.40;99.90;;;;;;5027179;28;20069;-67
2023/10/22 03:28:45;;;;;;;4.55;1.55;;;12.40;99.90;;;;;;5028248;28;20112;-67
2023/10/22 03:31:11;;;;;;;1.60;0.40;;;12.40;99.90;;;;;;5028081;28;20398;-67
2023/10/22 03:33:36;;;;;;;2.47;0.63;;;12.40;99.90;;;;;;5027272;28;20029;-67
2023/10/22 03:36:04;;;;;;;2.42;0.50;;;12.40;99.90;;;;;;5028548;28;20033;-67
2023/10/22 03:38:30;;;;;;;2.53;0.65;;;12.40;99.90;;;;;;5030667;28;20394;-67
2023/10/22 03:41:02;;;;;;;2.08;0.60;;;12.50;99.90;;;;;;5030308;28;20040;-67
2023/10/22 03:43:28;;;;;;;1.77;0.57;;;12.50;99.90;;;;;;5029509;28;20018;-67
2023/10/22 03:45:58;;;;;;;1.50;0.50;;;12.50;99.90;;;;;;5028232;28;20475;-67
2023/10/22 03:48:24;;;;;;;1.92;1.13;;;12.50;99.90;;;;;;5026661;28;20546;-67
2023/10/22 03:50:50;;;;;;;5.15;0.90;;;12.50;99.90;;;;;;5027056;28;20048;-67
2023/10/22 03:53:16;;;;;;;1.00;0.60;;;12.40;99.90;;;;;;5027439;28;20033;-67
2023/10/22 03:55:41;;;;;;;2.45;1.00;;;12.40;99.90;;;;;;5029995;28;20029;-67
2023/10/22 03:58:07;;;;;;;3.08;0.70;;;12.40;99.90;;;;;;5028222;28;20030;-67
2023/10/22 04:00:33;;;;;;;2.00;0.60;;;12.40;99.90;;;;;;5029862;28;20052;-67
2023/10/22 04:02:59;;;;;;;3.65;1.10;;;12.40;99.90;;;;;;5026538;28;20476;-67
2023/10/22 04:05:25;;;;;;;4.13;0.93;;;12.40;99.90;;;;;;5029248;28;20056;-67
2023/10/22 04:07:50;;;;;;;1.98;0.60;;;12.40;99.90;;;;;;5030583;28;20464;-67
2023/10/22 04:10:16;;;;;;;0.95;0.50;;;12.40;99.90;;;;;;5027064;28;20604;-68
2023/10/22 04:12:42;;;;;;;3.38;0.60;;;12.40;99.90;;;;;;5022104;28;20026;-68
2023/10/22 04:15:08;;;;;;;2.05;0.60;;;12.40;99.90;;;;;;5025537;28;20045;-67
2023/10/22 04:17:34;;;;;;;5.43;0.80;;;12.40;99.90;;;;;;5023151;28;20025;-67
2023/10/22 04:20:00;;;;;;;2.60;0.50;;;12.40;99.90;;;;;;5028116;28;20033;-67
2023/10/22 04:22:26;;;;;;;3.35;0.73;;;12.30;99.90;;;;;;5025935;28;20401;-67
2023/10/22 04:24:52;;;;;;;4.13;1.30;;;12.30;99.90;;;;;;5025034;28;20029;-67
2023/10/22 04:27:18;;;;;;;2.28;0.73;;;12.30;99.90;;;;;;5024872;28;20116;-67
2023/10/22 04:29:46;;;;;;;0.80;0.55;;;12.30;99.90;;;;;;5028395;28;20106;-67
2023/10/22 04:32:14;;;;;;;2.60;0.45;;;12.30;99.90;;;;;;5030365;28;20021;-68
2023/10/22 04:34:40;;;;;;;0.65;0.50;;;12.30;99.90;;;;;;5030383;28;20029;-67
2023/10/22 04:37:07;;;;;;;6.40;0.68;;;12.30;99.90;;;;;;5032386;28;20029;-67
2023/10/22 04:39:32;;;;;;;5.07;0.40;;;12.30;99.90;;;;;;5032907;28;20437;-67
2023/10/22 04:41:58;;;;;;;1.30;0.45;;;12.30;99.90;;;;;;5027650;28;20040;-67
2023/10/22 04:44:24;;;;;;;1.88;0.40;;;12.30;99.90;;;;;;5028655;28;20071;-68
2023/10/22 04:46:53;;;;;;;1.45;0.60;;;12.20;99.90;;;;;;5026454;28;20021;-68
2023/10/22 04:49:18;;;;;;;2.75;0.60;;;12.20;99.90;;;;;;5030538;28;20508;-67
2023/10/22 04:51:44;;;;;;;2.30;0.70;;;12.20;99.90;;;;;;5033411;28;20033;-67
2023/10/22 04:54:10;;;;;;;0.57;0.57;;;12.20;99.90;;;;;;5030830;28;20057;-67
2023/10/22 04:56:36;;;;;;;2.75;0.50;;;12.20;99.90;;;;;;5031552;28;20548;-67
2023/10/22 04:59:01;;;;;;;1.05;0.65;;;12.20;99.90;;;;;;5031480;28;20134;-67
2023/10/22 05:01:27;;;;;;;0.63;0.55;;;12.10;99.90;;;;;;5029180;28;20030;-68
2023/10/22 05:03:53;;;;;;;1.48;0.70;;;12.10;99.90;;;;;;5033232;28;20057;-67
2023/10/22 05:06:18;;;;;;;0.93;0.52;;;12.20;99.90;;;;;;5034307;28;20475;-67
2023/10/22 05:08:44;;;;;;;1.92;0.45;;;12.20;99.90;;;;;;5028813;28;20032;-68
2023/10/22 05:11:16;;;;;;;1.88;0.50;;;12.20;99.90;;;;;;5029442;28;20033;-67
2023/10/22 05:13:43;;;;;;;1.25;0.35;;;12.10;99.90;;;;;;5026732;28;20120;-67
2023/10/22 05:16:10;;;;;;;4.47;0.50;;;12.20;99.90;;;;;;5029174;28;20029;-67
2023/10/22 05:18:36;;;;;;;1.40;0.57;;;12.10;99.90;;;;;;5032550;28;20078;-68
2023/10/22 05:21:06;;;;;;;1.02;0.45;;;12.10;99.90;;;;;;5031186;28;20017;-67
2023/10/22 05:23:33;;;;;;;2.22;0.52;;;12.10;99.90;;;;;;5026532;28;20022;-67
2023/10/22 05:26:06;;;;;;;0.95;0.47;;;12.10;99.90;;;;;;5029138;28;20052;-67
2023/10/22 05:28:32;;;;;;;1.73;0.43;;;12.10;99.90;;;;;;5027071;28;20071;-67
2023/10/22 05:30:58;;;;;;;2.88;0.75;;;12.10;99.90;;;;;;5029962;28;20109;-67
2023/10/22 05:33:23;;;;;;;0.77;0.43;;;12.10;99.90;;;;;;5028833;28;20031;-67
2023/10/22 05:35:49;;;;;;;0.40;0.40;;;12.10;99.90;;;;;;5030216;28;20021;-67
2023/10/22 05:38:14;;;;;;;0.40;0.40;;;12.10;99.90;;;;;;5027693;28;20036;-67
2023/10/22 05:40:40;;;;;;;0.47;0.38;;;12.10;99.90;;;;;;5026995;28;20030;-68
2023/10/22 05:43:05;;;;;;;1.05;0.50;;;12.10;99.90;;;;;;5028894;28;20462;-67
2023/10/22 05:45:32;;;;;;;1.05;0.52;;;12.00;99.90;;;;;;5026167;28;20044;-68
2023/10/22 05:47:57;;;;;;;0.30;0.30;;;12.10;99.90;;;;;;5026464;28;20026;-67
2023/10/22 05:50:23;;;;;;;0.98;0.40;;;12.00;99.90;;;;;;5028237;28;20072;-67
2023/10/22 05:52:50;;;;;;;0.65;0.55;;;12.00;99.90;;;;;;5028167;28;20025;-67
2023/10/22 05:55:16;;;;;;;1.08;0.40;;;12.00;99.90;;;;;;5027287;28;20028;-67
2023/10/22 05:57:46;;;;;;;1.20;0.40;;;12.00;99.90;;;;;;5029652;28;20076;-67
2023/10/22 06:00:12;;;;;;;2.50;0.30;;;12.00;99.90;;;;;;5027999;28;20025;-67
2023/10/22 06:02:38;;;;;;;0.52;0.38;;;12.00;99.90;;;;;;5029644;28;20095;-67
2023/10/22 06:05:04;;;;;;;0.10;0.10;;;12.00;99.90;;;;;;5029751;28;20030;-67
2023/10/22 06:07:30;;;;;;;3.95;0.60;;;12.00;99.90;;;;;;5027712;28;20029;-67
2023/10/22 06:09:56;;;;;;;0.40;0.40;;;12.00;99.90;;;;;;5027985;28;20066;-67
2023/10/22 06:12:21;;;;;;;1.55;0.57;;;12.00;99.90;;;;;;5028788;28;20117;-68
2023/10/22 06:14:47;;;;;;;1.25;0.55;;;12.00;99.90;;;;;;5029991;28;20116;-67
2023/10/22 06:17:12;;;;;;;3.10;0.65;;;12.00;99.90;;;;;;5030324;28;20033;-67
2023/10/22 06:19:38;;;;;;;3.95;0.77;;;12.00;99.90;;;;;;5024022;28;20034;-68
2023/10/22 06:22:04;;;;;;;0.85;0.45;;;12.00;99.90;;;;;;5021939;28;20026;-67
2023/10/22 06:24:30;;;;;;;2.47;0.50;;;12.00;99.90;;;;;;5024158;28;20056;-67
2023/10/22 06:26:55;;;;;;;0.40;0.30;;;12.00;99.90;;;;;;5027018;28;20157;-67
2023/10/22 06:29:21;;;;;;;0.77;0.40;;;12.00;99.90;;;;;;5027825;28;20038;-67
2023/10/22 06:31:46;;;;;;;0.40;0.40;;;12.00;99.90;;;;;;5024366;28;20502;-67
2023/10/22 06:34:12;;;;;;;1.05;0.40;;;12.00;99.90;;;;;;5027910;28;20069;-67
2023/10/22 06:36:37;;;;;;;0.40;0.40;;;12.00;99.90;;;;;;5020957;28;20087;-67
2023/10/22 06:39:03;;;;;;;0.30;0.30;;;12.00;99.90;;;;;;5024528;28;20037;-68
2023/10/22 06:41:29;;;;;;;0.30;0.30;;;12.00;99.90;;;;;;5027619;28;20032;-67
2023/10/22 06:43:54;;;;;;;1.48;0.40;;;12.00;99.90;;;;;;5026637;28;20030;-67
2023/10/22 06:46:20;;;;;;;0.35;0.30;;;12.00;99.90;;;;;;5029283;28;20033;-67
2023/10/22 06:48:47;;;;;;;0.52;0.52;;;12.00;99.90;;;;;;5028340;28;20088;-68
2023/10/22 06:51:17;;;;;;;8.32;1.02;;;12.00;99.90;;;;;;5022850;28;20098;-67
2023/10/22 06:53:45;;;;;;;1.23;0.75;;;12.00;99.90;;;;;;5025470;28;20044;-67
2023/10/22 06:56:12;;;;;;;3.47;0.65;;;11.90;99.90;;;;;;5029668;28;20022;-68
2023/10/22 06:58:38;;;;;;;0.82;0.40;;;11.90;99.90;;;;;;5024618;28;20030;-67
2023/10/22 07:01:08;;;;;;;1.73;0.85;;;11.90;99.90;;;;;;5029914;28;20071;-68
2023/10/22 07:03:39;;;;;;;0.30;0.30;;;11.90;99.90;;;;;;5030290;28;20037;-67
2023/10/22 07:06:05;;;;;;;0.50;0.30;;;11.90;99.90;;;;;;5026274;28;20025;-67
2023/10/22 07:08:31;;;;;;;2.58;0.57;;;12.00;99.90;;;;;;5023131;28;20025;-67
2023/10/22 07:10:57;;;;;;;1.30;0.57;;;12.00;99.90;;;;;;5026987;28;20447;-67
2023/10/22 07:13:24;;;;;;;2.10;0.55;;;12.00;99.90;;;;;;5030440;28;20029;-67
2023/10/22 07:15:51;;;;;;;0.68;0.30;;;12.10;99.90;;;;;;5027902;28;20541;-68
2023/10/22 07:18:17;;;;;;;0.40;0.40;;;12.10;99.90;;;;;;5030910;28;20033;-68
2023/10/22 07:20:42;;;;;;;4.68;0.60;;;12.10;99.90;;;;;;5027677;28;20033;-67
2023/10/22 07:23:08;;;;;;;3.05;0.80;;;12.10;99.90;;;;;;5028111;28;20584;-68
2023/10/22 07:25:34;;;;;;;12.23;5.03;;;12.20;99.90;;;;;;5025038;28;20029;-68
2023/10/22 07:28:00;;;;;;;8.35;3.80;;;12.30;99.90;;;;;;5022222;28;20072;-67
2023/10/22 07:30:25;;;;;;;6.55;2.60;;;12.20;99.90;;;;;;5027518;28;20083;-68
2023/10/22 07:32:52;;;;;;;4.15;2.35;;;12.20;99.90;;;;;;5019957;28;20507;-67
2023/10/22 07:35:18;;;;;;;4.05;1.60;;;12.10;99.90;;;;;;5031105;28;20076;-67
2023/10/22 07:37:44;;;;;;;1.95;0.85;;;12.10;99.90;;;;;;5020601;28;20379;-68
2023/10/22 07:40:13;;;;;;;2.17;0.80;;;12.10;99.90;;;;;;5024581;28;20025;-67
2023/10/22 07:42:39;;;;;;;1.42;0.77;;;12.10;99.90;;;;;;5022838;28;20030;-67
2023/10/22 07:45:06;;;;;;;391.90;171.40;;;12.10;99.90;;;;;;5025930;28;20083;-68
2023/10/22 07:47:31;;;;;;;245.68;126.57;;;12.10;99.90;;;;;;5027873;28;20065;-67
2023/10/22 07:49:57;;;;;;;125.20;66.35;;;12.20;99.90;;;;;;5024345;28;20064;-67
2023/10/22 07:52:23;;;;;;;87.43;48.33;;;12.20;99.90;;;;;;5027138;28;20037;-68
2023/10/22 07:54:52;;;;;;;27.85;19.17;;;12.20;99.90;;;;;;5030478;28;20057;-68
2023/10/22 07:57:18;;;;;;;12.40;8.25;;;12.40;99.90;;;;;;5050704;28;20033;-69
2023/10/22 07:59:44;;;;;;;12.98;6.88;;;12.40;99.90;;;;;;5028581;28;20038;-68
2023/10/22 08:02:10;;;;;;;8.98;5.28;;;12.40;99.90;;;;;;5028676;28;20029;-67
2023/10/22 08:04:37;;;;;;;5.95;3.25;;;12.50;99.90;;;;;;5033578;28;20474;-68
2023/10/22 08:07:06;;;;;;;4.25;1.33;;;12.60;99.90;;;;;;5029017;28;20022;-67
2023/10/22 08:09:32;;;;;;;2.13;1.33;;;12.50;99.90;;;;;;5032020;28;20029;-67
2023/10/22 08:11:57;;;;;;;1.55;1.30;;;12.50;99.90;;;;;;5034399;28;20071;-68
2023/10/22 08:14:24;;;;;;;2.45;1.10;;;12.50;99.90;;;;;;5032579;28;20029;-67
2023/10/22 08:16:50;;;;;;;3.03;1.80;;;12.50;99.90;;;;;;5032424;28;20025;-67
2023/10/22 08:19:16;;;;;;;3.92;1.27;;;12.40;99.90;;;;;;5031600;28;20037;-67
2023/10/22 08:21:42;;;;;;;4.30;1.85;;;12.50;99.90;;;;;;5030805;28;20467;-68
2023/10/22 08:24:07;;;;;;;3.63;1.30;;;12.40;99.90;;;;;;5031021;28;20030;-67
2023/10/22 08:26:33;;;;;;;1.63;0.85;;;12.50;99.90;;;;;;5032770;28;20030;-67
2023/10/22 08:28:59;;;;;;;1.48;0.73;;;12.40;99.90;;;;;;5034367;28;20419;-68
2023/10/22 08:31:25;;;;;;;1.70;0.75;;;12.30;99.90;;;;;;5032968;28;20860;-67
2023/10/22 08:33:50;;;;;;;1.05;0.80;;;12.30;99.90;;;;;;5029758;28;20088;-67
2023/10/22 08:36:16;;;;;;;0.88;0.80;;;12.30;99.90;;;;;;5031808;28;20022;-67
2023/10/22 08:38:42;;;;;;;1.15;0.75;;;12.40;99.90;;;;;;5031088;28;20025;-67
2023/10/22 08:41:26;;;;;;;1.85;1.13;;;12.50;99.90;;;;;;5030569;28;20033;-67
2023/10/22 08:43:52;;;;;;;2.72;1.30;;;12.40;99.90;;;;;;5032754;28;20034;-67
2023/10/22 08:46:18;;;;;;;1.38;1.00;;;12.40;99.90;;;;;;5032616;28;20395;-67
2023/10/22 08:48:44;;;;;;;1.52;1.13;;;12.20;99.90;;;;;;5031639;28;20035;-67
2023/10/22 08:51:10;;;;;;;0.82;0.77;;;12.30;99.90;;;;;;5033652;28;20037;-67
2023/10/22 08:53:36;;;;;;;0.88;0.88;;;12.20;99.90;;;;;;5031538;28;20033;-67
2023/10/22 08:56:02;;;;;;;1.63;0.70;;;12.20;99.90;;;;;;5030699;28;20032;-67
2023/10/22 08:58:28;;;;;;;1.45;0.98;;;12.20;99.90;;;;;;5032096;28;20053;-67
2023/10/22 09:00:54;;;;;;;0.70;0.57;;;12.10;99.90;;;;;;5031627;28;20372;-67
2023/10/22 09:03:21;;;;;;;3.22;1.48;;;12.20;99.90;;;;;;5032041;28;20021;-67
2023/10/22 09:05:47;;;;;;;3.08;1.20;;;12.20;99.90;;;;;;5030193;28;20029;-68
2023/10/22 09:08:14;;;;;;;0.85;0.60;;;12.30;99.90;;;;;;5028751;28;20033;-67
2023/10/22 09:10:40;;;;;;;0.52;0.52;;;12.30;99.90;;;;;;5031670;28;20451;-67
2023/10/22 09:13:22;;;;;;;1.25;0.80;;;12.30;99.90;;;;;;5031409;28;20083;-67
2023/10/22 09:15:52;;;;;;;0.70;0.50;;;12.30;99.90;;;;;;5035810;28;20045;-67
2023/10/22 09:18:18;;;;;;;1.75;0.70;;;12.40;99.90;;;;;;5031949;28;20384;-67
2023/10/22 09:20:45;;;;;;;1.63;0.80;;;12.30;99.90;;;;;;5028713;28;20029;-67
2023/10/22 09:23:21;;;;;;;2.05;1.23;;;12.20;99.90;;;;;;5027491;28;20033;-67
2023/10/22 09:25:51;;;;;;;1.73;0.60;;;12.20;99.90;;;;;;5026817;28;20022;-67
2023/10/22 09:28:22;;;;;;;0.82;0.75;;;12.10;99.90;;;;;;5022450;28;20025;-67
2023/10/22 09:31:04;;;;;;;1.35;0.98;;;12.20;99.90;;;;;;5030893;28;20402;-67
2023/10/22 09:33:37;;;;;;;0.80;0.60;;;12.00;99.90;;;;;;5025028;28;20087;-67
2023/10/22 09:36:04;;;;;;;;;;;11.90;99.90;;;;;;5025420;28;20059;-67
2023/10/22 09:38:47;;;;;;;0.93;0.80;;;12.00;99.90;;;;;;5031515;28;19905;-67
2023/10/22 09:41:18;;;;;;;2.72;0.98;;;11.90;99.90;;;;;;5027415;28;20075;-67
2023/10/22 09:43:44;;;;;;;2.25;0.68;;;11.80;99.90;;;;;;5028386;28;20064;-67
2023/10/22 09:46:10;;;;;;;0.60;0.40;;;11.90;99.90;;;;;;5028500;28;20057;-67
2023/10/22 09:48:36;;;;;;;0.63;0.50;;;11.90;99.90;;;;;;5029771;28;20033;-67
2023/10/22 09:51:05;;;;;;;0.70;0.70;;;12.00;99.90;;;;;;5027504;28;20049;-67
2023/10/22 09:53:38;;;;;;;0.93;0.73;;;12.10;99.90;;;;;;5029027;28;20026;-68
2023/10/22 09:56:06;;;;;;;0.68;0.50;;;12.00;99.90;;;;;;5026013;28;20025;-68
2023/10/22 09:58:39;;;;;;;3.28;0.60;;;12.00;99.90;;;;;;5030514;28;20449;-67
2023/10/22 10:01:06;;;;;;;1.02;0.82;;;12.10;99.90;;;;;;5028666;28;20017;-67
2023/10/22 10:03:32;;;;;;;0.77;0.60;;;12.30;99.90;;;;;;5028128;28;20383;-67
2023/10/22 10:05:57;;;;;;;1.20;1.05;;;12.50;99.90;;;;;;5029819;28;20021;-67
2023/10/22 10:08:24;;;;;;;1.15;1.05;;;12.50;99.90;;;;;;5028804;28;20556;-67
2023/10/22 10:10:49;;;;;;;1.23;1.13;;;12.50;99.90;;;;;;5028326;28;20087;-67
2023/10/22 10:13:15;;;;;;;2.13;1.92;;;12.50;99.90;;;;;;5026157;28;20033;-67
2023/10/22 10:15:41;;;;;;;1.60;1.50;;;12.60;99.90;;;;;;5025234;28;20154;-67
2023/10/22 10:18:07;;;;;;;1.48;1.30;;;12.70;99.90;;;;;;5028966;28;20453;-67
2023/10/22 10:20:35;;;;;;;1.02;0.80;;;12.70;99.90;;;;;;5025774;28;20449;-68
2023/10/22 10:23:06;;;;;;;0.70;0.70;;;12.70;99.90;;;;;;5027189;28;20108;-67
2023/10/22 10:25:34;;;;;;;0.80;0.80;;;12.70;99.90;;;;;;5025903;28;20028;-67
2023/10/22 10:28:05;;;;;;;1.48;1.08;;;12.60;99.90;;;;;;5027036;28;20033;-67
2023/10/22 10:30:30;;;;;;;1.30;1.20;;;12.60;99.90;;;;;;5028561;28;20025;-67
2023/10/22 10:32:56;;;;;;;0.95;0.90;;;12.60;99.90;;;;;;5026577;28;20036;-67
2023/10/22 10:35:23;;;;;;;1.70;1.10;;;12.80;99.90;;;;;;5024359;28;20112;-68
2023/10/22 10:38:13;;;;;;;1.13;1.00;;;12.80;99.90;;;;;;5026606;28;20124;-67
2023/10/22 10:40:46;;;;;;;1.35;1.10;;;12.80;99.90;;;;;;5014754;28;20586;-67
2023/10/22 10:43:12;;;;;;;1.60;1.10;;;13.00;99.90;;;;;;5026951;28;20018;-67
2023/10/22 10:45:43;;;;;;;2.65;1.20;;;13.00;99.90;;;;;;5029615;28;20536;-68
2023/10/22 10:48:45;;;;;;;2.88;0.80;;;13.00;99.90;;;;;;5028800;28;20075;-68
2023/10/22 10:51:21;;;;;;;1.33;0.82;;;13.00;99.90;;;;;;5024911;28;20475;-67
2023/10/22 10:54:04;;;;;;;1.30;1.00;;;12.90;99.90;;;;;;5029167;28;20036;-68
2023/10/22 10:56:49;;;;;;;2.55;1.55;;;13.00;99.90;;;;;;5023135;28;20465;-68
2023/10/22 10:59:34;;;;;;;1.77;1.25;;;12.90;99.90;;;;;;5000120;28;20409;-68
2023/10/22 11:02:10;;;;;;;1.30;1.17;;;13.00;99.90;;;;;;5027468;28;20032;-68
2023/10/22 11:04:37;;;;;;;1.30;1.20;;;13.00;99.90;;;;;;5028860;28;20026;-67
2023/10/22 11:07:04;;;;;;;1.95;1.48;;;13.00;99.90;;;;;;5029767;28;20426;-68
2023/10/22 11:09:37;;;;;;;1.80;1.27;;;13.00;99.90;;;;;;5029709;28;20025;-68
2023/10/22 11:12:05;;;;;;;3.53;1.40;;;13.00;99.90;;;;;;5025032;28;20041;-68
2023/10/22 11:14:35;;;;;;;2.45;1.88;;;13.00;99.90;;;;;;5029591;28;20030;-68
2023/10/22 11:17:02;;;;;;;2.13;1.67;;;13.10;99.90;;;;;;5029070;28;20018;-67
2023/10/22 11:19:30;;;;;;;1.98;1.73;;;13.00;99.90;;;;;;5028932;28;20026;-68
2023/10/22 11:21:56;;;;;;;2.45;2.00;;;13.00;99.90;;;;;;5029544;28;20444;-67
2023/10/22 11:24:27;;;;;;;2.97;1.98;;;13.00;99.90;;;;;;5041396;28;20022;-68
2023/10/22 11:26:53;;;;;;;3.17;1.90;;;13.00;99.90;;;;;;5026438;28;20179;-68
2023/10/22 11:29:20;;;;;;;2.60;2.10;;;13.00;99.90;;;;;;5027198;28;20044;-67
2023/10/22 11:31:53;;;;;;;2.33;2.10;;;13.00;99.90;;;;;;5028969;28;20066;-67
2023/10/22 11:34:19;;;;;;;2.80;2.17;;;12.90;99.90;;;;;;5028253;28;20041;-67
2023/10/22 11:36:45;;;;;;;2.90;2.25;;;12.80;99.90;;;;;;5020091;28;20044;-68
2023/10/22 11:39:18;;;;;;;2.85;1.92;;;12.70;99.90;;;;;;5028679;28;20084;-68
2023/10/22 11:41:44;;;;;;;;;;;12.80;99.90;;;;;;5028451;28;20029;-67
2023/10/22 11:44:24;;;;;;;3.38;2.55;;;12.80;99.90;;;;;;5028505;28;20379;-67
2023/10/22 11:46:49;;;;;;;3.50;2.17;;;12.80;99.90;;;;;;5026700;28;20045;-67
2023/10/22 11:49:15;;;;;;;3.25;2.20;;;12.80;99.90;;;;;;5028815;28;20059;-68
2023/10/22 11:51:44;;;;;;;2.92;2.47;;;12.90;99.90;;;;;;5028453;28;20032;-68
2023/10/22 11:54:09;;;;;;;4.72;2.45;;;12.90;99.90;;;;;;5026048;28;20479;-67
2023/10/22 11:56:35;;;;;;;3.85;2.00;;;12.90;99.90;;;;;;5029541;28;20032;-67
2023/10/22 11:59:01;;;;;;;2.28;1.92;;;12.90;99.90;;;;;;5027975;28;20499;-67
2023/10/22 12:01:26;;;;;;;4.35;2.53;;;12.90;99.90;;;;;;5025371;28;20025;-67
2023/10/22 12:03:52;;;;;;;2.88;2.35;;;12.90;99.90;;;;;;5030296;28;20450;-68
2023/10/22 12:06:17;;;;;;;2.65;2.33;;;12.90;99.90;;;;;;5028335;28;20398;-68
2023/10/22 12:08:43;;;;;;;2.95;2.25;;;12.90;99.90;;;;;;5033206;28;20029;-68
2023/10/22 12:11:09;;;;;;;4.05;2.50;;;13.00;99.90;;;;;;5022217;28;20205;-67
2023/10/22 12:13:34;;;;;;;7.63;3.10;;;12.90;99.90;;;;;;5026043;28;20025;-67
2023/10/22 12:16:00;;;;;;;5.07;2.75;;;13.00;99.90;;;;;;5020871;28;20044;-67
2023/10/22 12:18:26;;;;;;;3.38;2.80;;;13.00;99.90;;;;;;5026311;28;20037;-68
2023/10/22 12:20:52;;;;;;;3.70;2.58;;;13.20;99.90;;;;;;5029627;28;20051;-67
2023/10/22 12:23:17;;;;;;;2.63;2.35;;;13.10;99.90;;;;;;5024879;28;20427;-69
2023/10/22 12:25:43;;;;;;;5.03;2.72;;;13.20;99.90;;;;;;5027886;28;20025;-68
2023/10/22 12:28:08;;;;;;;3.30;2.58;;;13.20;99.90;;;;;;5027278;28;20022;-68
2023/10/22 12:30:34;;;;;;;4.50;2.38;;;13.30;99.90;;;;;;5021215;28;20025;-68
2023/10/22 12:33:00;;;;;;;2.53;2.10;;;13.30;99.90;;;;;;5026202;28;20046;-69
2023/10/22 12:35:25;;;;;;;4.80;2.80;;;13.40;99.90;;;;;;5024130;28;20045;-68
2023/10/22 12:37:51;;;;;;;5.25;2.72;;;13.40;99.90;;;;;;5026688;28;20391;-68
2023/10/22 12:40:17;;;;;;;3.05;2.67;;;13.30;99.90;;;;;;5020402;28;20090;-67
2023/10/22 12:42:43;;;;;;;3.85;2.95;;;13.30;99.90;;;;;;5027349;28;20037;-68
2023/10/22 12:45:10;;;;;;;4.45;3.10;;;13.30;99.90;;;;;;5028119;28;20022;-67